sensor_id;sensor_type;location;lat;lon;timestamp;P1;durP1;ratioP1;P2;durP2;ratioP2
42478;SDS011;28110;47.080;9.476;2024-01-30T00:01:52;3.13;;;0.87;;
42478;SDS011;28110;47.080;9.476;2024-01-30T00:04:18;3.33;;;0.68;;
42478;SDS011;28110;47.080;9.476;2024-01-30T00:06:44;1.73;;;0.50;;
42478;SDS011;28110;47.080;9.476;2024-01-30T00:09:09;0.68;;;0.50;;
42478;SDS011;28110;47.080;9.476;2024-01-30T00:11:36;1.52;;;0.50;;
42478;SDS011;28110;47.080;9.476;2024-01-30T00:14:04;0.85;;;0.50;;
42478;SDS011;28110;47.080;9.476;2024-01-30T00:16:30;1.33;;;0.63;;
42478;SDS011;28110;47.080;9.476;2024-01-30T00:18:56;1.10;;;0.50;;
42478;SDS011;28110;47.080;9.476;2024-01-30T00:21:22;0.93;;;0.60;;
42478;SDS011;28110;47.080;9.476;2024-01-30T00:23:48;0.80;;;0.50;;
42478;SDS011;28110;47.080;9.476;2024-01-30T00:26:14;1.15;;;0.60;;
42478;SDS011;28110;47.080;9.476;2024-01-30T00:28:42;0.77;;;0.50;;
42478;SDS011;28110;47.080;9.476;2024-01-30T00:31:08;0.75;;;0.40;;
42478;SDS011;28110;47.080;9.476;2024-01-30T00:33:40;0.60;;;0.40;;
42478;SDS011;28110;47.080;9.476;2024-01-30T00:36:07;0.70;;;0.40;;
42478;SDS011;28110;47.080;9.476;2024-01-30T00:38:33;1.23;;;0.40;;
42478;SDS011;28110;47.080;9.476;2024-01-30T00:40:59;1.00;;;0.60;;
42478;SDS011;28110;47.080;9.476;2024-01-30T00:43:24;1.33;;;0.50;;
42478;SDS011;28110;47.080;9.476;2024-01-30T00:45:50;1.70;;;0.70;;
42478;SDS011;28110;47.080;9.476;2024-01-30T00:48:19;1.77;;;0.60;;
42478;SDS011;28110;47.080;9.476;2024-01-30T00:50:45;2.53;;;0.50;;
42478;SDS011;28110;47.080;9.476;2024-01-30T00:53:10;1.90;;;0.47;;
42478;SDS011;28110;47.080;9.476;2024-01-30T00:55:36;1.57;;;0.50;;
42478;SDS011;28110;47.080;9.476;2024-01-30T00:58:01;1.60;;;0.63;;
42478;SDS011;28110;47.080;9.476;2024-01-30T01:00:27;2.42;;;0.60;;
42478;SDS011;28110;47.080;9.476;2024-01-30T01:03:00;1.80;;;0.70;;
42478;SDS011;28110;47.080;9.476;2024-01-30T01:05:26;2.30;;;0.40;;
42478;SDS011;28110;47.080;9.476;2024-01-30T01:07:52;1.37;;;0.70;;
42478;SDS011;28110;47.080;9.476;2024-01-30T01:10:18;2.03;;;0.60;;
42478;SDS011;28110;47.080;9.476;2024-01-30T01:12:43;1.13;;;0.60;;
42478;SDS011;28110;47.080;9.476;2024-01-30T01:15:09;4.05;;;1.00;;
42478;SDS011;28110;47.080;9.476;2024-01-30T01:17:36;4.05;;;1.25;;
42478;SDS011;28110;47.080;9.476;2024-01-30T01:20:02;2.70;;;0.90;;
42478;SDS011;28110;47.080;9.476;2024-01-30T01:22:30;3.17;;;0.77;;
42478;SDS011;28110;47.080;9.476;2024-01-30T01:24:56;2.25;;;0.90;;
42478;SDS011;28110;47.080;9.476;2024-01-30T01:27:21;1.20;;;0.70;;
42478;SDS011;28110;47.080;9.476;2024-01-30T01:29:47;1.97;;;1.00;;
42478;SDS011;28110;47.080;9.476;2024-01-30T01:32:12;1.38;;;0.65;;
42478;SDS011;28110;47.080;9.476;2024-01-30T01:34:38;2.30;;;0.50;;
42478;SDS011;28110;47.080;9.476;2024-01-30T01:37:03;1.13;;;0.50;;
42478;SDS011;28110;47.080;9.476;2024-01-30T01:39:29;2.20;;;0.40;;
42478;SDS011;28110;47.080;9.476;2024-01-30T01:41:54;2.63;;;0.50;;
42478;SDS011;28110;47.080;9.476;2024-01-30T01:44:20;1.17;;;0.40;;
42478;SDS011;28110;47.080;9.476;2024-01-30T01:46:45;0.75;;;0.40;;
42478;SDS011;28110;47.080;9.476;2024-01-30T01:49:12;0.93;;;0.50;;
42478;SDS011;28110;47.080;9.476;2024-01-30T01:51:38;0.98;;;0.40;;
42478;SDS011;28110;47.080;9.476;2024-01-30T01:54:06;1.15;;;0.43;;
42478;SDS011;28110;47.080;9.476;2024-01-30T01:56:32;1.20;;;0.50;;
42478;SDS011;28110;47.080;9.476;2024-01-30T01:58:59;1.05;;;0.45;;
42478;SDS011;28110;47.080;9.476;2024-01-30T02:01:30;2.30;;;0.50;;
42478;SDS011;28110;47.080;9.476;2024-01-30T02:03:58;1.83;;;0.50;;
42478;SDS011;28110;47.080;9.476;2024-01-30T02:06:26;0.40;;;0.40;;
42478;SDS011;28110;47.080;9.476;2024-01-30T02:08:53;1.70;;;0.40;;
42478;SDS011;28110;47.080;9.476;2024-01-30T02:11:22;2.00;;;0.40;;
42478;SDS011;28110;47.080;9.476;2024-01-30T02:13:48;0.40;;;0.30;;
42478;SDS011;28110;47.080;9.476;2024-01-30T02:16:14;0.43;;;0.40;;
42478;SDS011;28110;47.080;9.476;2024-01-30T02:18:39;0.53;;;0.40;;
42478;SDS011;28110;47.080;9.476;2024-01-30T02:21:12;1.08;;;0.40;;
42478;SDS011;28110;47.080;9.476;2024-01-30T02:23:38;0.75;;;0.40;;
42478;SDS011;28110;47.080;9.476;2024-01-30T02:26:05;0.82;;;0.30;;
42478;SDS011;28110;47.080;9.476;2024-01-30T02:28:31;0.57;;;0.40;;
42478;SDS011;28110;47.080;9.476;2024-01-30T02:30:57;1.15;;;0.45;;
42478;SDS011;28110;47.080;9.476;2024-01-30T02:33:22;0.80;;;0.50;;
42478;SDS011;28110;47.080;9.476;2024-01-30T02:35:48;1.00;;;0.40;;
42478;SDS011;28110;47.080;9.476;2024-01-30T02:38:15;1.65;;;0.55;;
42478;SDS011;28110;47.080;9.476;2024-01-30T02:40:40;1.02;;;0.40;;
42478;SDS011;28110;47.080;9.476;2024-01-30T02:43:06;0.80;;;0.40;;
42478;SDS011;28110;47.080;9.476;2024-01-30T02:45:32;0.97;;;0.60;;
42478;SDS011;28110;47.080;9.476;2024-01-30T02:47:57;1.65;;;0.60;;
42478;SDS011;28110;47.080;9.476;2024-01-30T02:50:23;1.63;;;0.67;;
42478;SDS011;28110;47.080;9.476;2024-01-30T02:52:48;1.77;;;0.80;;
42478;SDS011;28110;47.080;9.476;2024-01-30T02:55:14;0.60;;;0.40;;
42478;SDS011;28110;47.080;9.476;2024-01-30T02:57:42;2.00;;;0.50;;
42478;SDS011;28110;47.080;9.476;2024-01-30T03:00:08;3.72;;;0.63;;
42478;SDS011;28110;47.080;9.476;2024-01-30T03:02:34;2.17;;;0.80;;
42478;SDS011;28110;47.080;9.476;2024-01-30T03:05:00;1.93;;;0.60;;
42478;SDS011;28110;47.080;9.476;2024-01-30T03:07:26;1.80;;;0.70;;
42478;SDS011;28110;47.080;9.476;2024-01-30T03:09:51;1.20;;;0.70;;
42478;SDS011;28110;47.080;9.476;2024-01-30T03:12:17;2.38;;;0.68;;
42478;SDS011;28110;47.080;9.476;2024-01-30T03:14:43;1.27;;;0.70;;
42478;SDS011;28110;47.080;9.476;2024-01-30T03:17:08;2.30;;;0.40;;
42478;SDS011;28110;47.080;9.476;2024-01-30T03:19:35;1.58;;;0.60;;
42478;SDS011;28110;47.080;9.476;2024-01-30T03:22:00;2.17;;;0.50;;
42478;SDS011;28110;47.080;9.476;2024-01-30T03:24:26;1.70;;;0.90;;
42478;SDS011;28110;47.080;9.476;2024-01-30T03:26:51;0.70;;;0.30;;
42478;SDS011;28110;47.080;9.476;2024-01-30T03:29:18;1.50;;;0.68;;
42478;SDS011;28110;47.080;9.476;2024-01-30T03:31:43;1.93;;;0.90;;
42478;SDS011;28110;47.080;9.476;2024-01-30T03:34:09;1.50;;;0.70;;
42478;SDS011;28110;47.080;9.476;2024-01-30T03:36:34;2.47;;;0.90;;
42478;SDS011;28110;47.080;9.476;2024-01-30T03:39:00;1.90;;;0.60;;
42478;SDS011;28110;47.080;9.476;2024-01-30T03:41:26;1.50;;;0.70;;
42478;SDS011;28110;47.080;9.476;2024-01-30T03:43:52;1.83;;;0.40;;
42478;SDS011;28110;47.080;9.476;2024-01-30T03:46:17;0.97;;;0.40;;
42478;SDS011;28110;47.080;9.476;2024-01-30T03:48:43;0.40;;;0.30;;
42478;SDS011;28110;47.080;9.476;2024-01-30T03:51:09;0.43;;;0.30;;
42478;SDS011;28110;47.080;9.476;2024-01-30T03:53:39;2.03;;;0.30;;
42478;SDS011;28110;47.080;9.476;2024-01-30T03:56:06;0.20;;;0.17;;
42478;SDS011;28110;47.080;9.476;2024-01-30T03:58:31;0.57;;;0.30;;
42478;SDS011;28110;47.080;9.476;2024-01-30T04:00:57;0.30;;;0.30;;
42478;SDS011;28110;47.080;9.476;2024-01-30T04:03:22;0.40;;;0.30;;
42478;SDS011;28110;47.080;9.476;2024-01-30T04:05:48;0.70;;;0.28;;
42478;SDS011;28110;47.080;9.476;2024-01-30T04:08:14;0.67;;;0.30;;
42478;SDS011;28110;47.080;9.476;2024-01-30T04:10:39;1.00;;;0.60;;
42478;SDS011;28110;47.080;9.476;2024-01-30T04:13:05;2.85;;;0.35;;
42478;SDS011;28110;47.080;9.476;2024-01-30T04:15:31;0.90;;;0.40;;
42478;SDS011;28110;47.080;9.476;2024-01-30T04:17:59;0.45;;;0.30;;
42478;SDS011;28110;47.080;9.476;2024-01-30T04:20:25;0.40;;;0.30;;
42478;SDS011;28110;47.080;9.476;2024-01-30T04:22:50;0.87;;;0.40;;
42478;SDS011;28110;47.080;9.476;2024-01-30T04:25:16;0.40;;;0.30;;
42478;SDS011;28110;47.080;9.476;2024-01-30T04:27:42;1.75;;;0.30;;
42478;SDS011;28110;47.080;9.476;2024-01-30T04:30:07;0.33;;;0.20;;
42478;SDS011;28110;47.080;9.476;2024-01-30T04:32:34;1.00;;;0.30;;
42478;SDS011;28110;47.080;9.476;2024-01-30T04:35:00;0.57;;;0.30;;
42478;SDS011;28110;47.080;9.476;2024-01-30T04:37:25;0.83;;;0.30;;
42478;SDS011;28110;47.080;9.476;2024-01-30T04:39:51;0.73;;;0.23;;
42478;SDS011;28110;47.080;9.476;2024-01-30T04:42:17;0.43;;;0.30;;
42478;SDS011;28110;47.080;9.476;2024-01-30T04:44:42;0.30;;;0.30;;
42478;SDS011;28110;47.080;9.476;2024-01-30T04:47:08;1.35;;;0.30;;
42478;SDS011;28110;47.080;9.476;2024-01-30T04:49:36;0.37;;;0.20;;
42478;SDS011;28110;47.080;9.476;2024-01-30T04:52:01;0.63;;;0.25;;
42478;SDS011;28110;47.080;9.476;2024-01-30T04:54:27;0.43;;;0.30;;
42478;SDS011;28110;47.080;9.476;2024-01-30T04:56:53;0.57;;;0.40;;
42478;SDS011;28110;47.080;9.476;2024-01-30T04:59:18;0.20;;;0.20;;
42478;SDS011;28110;47.080;9.476;2024-01-30T05:01:44;0.40;;;0.30;;
42478;SDS011;28110;47.080;9.476;2024-01-30T05:04:09;0.47;;;0.30;;
42478;SDS011;28110;47.080;9.476;2024-01-30T05:06:36;0.47;;;0.30;;
42478;SDS011;28110;47.080;9.476;2024-01-30T05:09:01;0.60;;;0.30;;
42478;SDS011;28110;47.080;9.476;2024-01-30T05:11:29;0.47;;;0.30;;
42478;SDS011;28110;47.080;9.476;2024-01-30T05:13:55;0.30;;;0.27;;
42478;SDS011;28110;47.080;9.476;2024-01-30T05:16:20;0.20;;;0.20;;
42478;SDS011;28110;47.080;9.476;2024-01-30T05:18:46;0.90;;;0.20;;
42478;SDS011;28110;47.080;9.476;2024-01-30T05:21:11;0.40;;;0.20;;
42478;SDS011;28110;47.080;9.476;2024-01-30T05:23:37;0.50;;;0.22;;
42478;SDS011;28110;47.080;9.476;2024-01-30T05:26:02;1.37;;;0.30;;
42478;SDS011;28110;47.080;9.476;2024-01-30T05:28:29;1.35;;;0.20;;
42478;SDS011;28110;47.080;9.476;2024-01-30T05:30:55;0.47;;;0.40;;
42478;SDS011;28110;47.080;9.476;2024-01-30T05:33:21;0.90;;;0.30;;
42478;SDS011;28110;47.080;9.476;2024-01-30T05:35:47;0.38;;;0.22;;
42478;SDS011;28110;47.080;9.476;2024-01-30T05:38:13;0.57;;;0.30;;
42478;SDS011;28110;47.080;9.476;2024-01-30T05:40:40;0.70;;;0.20;;
42478;SDS011;28110;47.080;9.476;2024-01-30T05:43:05;0.47;;;0.25;;
42478;SDS011;28110;47.080;9.476;2024-01-30T05:45:31;0.67;;;0.43;;
42478;SDS011;28110;47.080;9.476;2024-01-30T05:47:56;2.33;;;0.50;;
42478;SDS011;28110;47.080;9.476;2024-01-30T05:50:22;1.65;;;0.28;;
42478;SDS011;28110;47.080;9.476;2024-01-30T05:52:48;0.30;;;0.20;;
42478;SDS011;28110;47.080;9.476;2024-01-30T05:55:14;0.30;;;0.20;;
42478;SDS011;28110;47.080;9.476;2024-01-30T05:57:39;0.30;;;0.30;;
42478;SDS011;28110;47.080;9.476;2024-01-30T06:00:05;0.47;;;0.20;;
42478;SDS011;28110;47.080;9.476;2024-01-30T06:02:31;0.22;;;0.20;;
42478;SDS011;28110;47.080;9.476;2024-01-30T06:04:56;1.05;;;0.30;;
42478;SDS011;28110;47.080;9.476;2024-01-30T06:07:23;0.63;;;0.30;;
42478;SDS011;28110;47.080;9.476;2024-01-30T06:09:48;0.38;;;0.38;;
42478;SDS011;28110;47.080;9.476;2024-01-30T06:12:14;0.40;;;0.30;;
42478;SDS011;28110;47.080;9.476;2024-01-30T06:14:39;0.30;;;0.30;;
42478;SDS011;28110;47.080;9.476;2024-01-30T06:17:07;0.35;;;0.30;;
42478;SDS011;28110;47.080;9.476;2024-01-30T06:19:33;0.28;;;0.20;;
42478;SDS011;28110;47.080;9.476;2024-01-30T06:21:58;0.60;;;0.27;;
42478;SDS011;28110;47.080;9.476;2024-01-30T06:24:24;0.68;;;0.30;;
42478;SDS011;28110;47.080;9.476;2024-01-30T06:26:49;0.20;;;0.20;;
42478;SDS011;28110;47.080;9.476;2024-01-30T06:29:15;0.40;;;0.20;;
42478;SDS011;28110;47.080;9.476;2024-01-30T06:31:41;2.95;;;0.40;;
42478;SDS011;28110;47.080;9.476;2024-01-30T06:34:07;0.80;;;0.30;;
42478;SDS011;28110;47.080;9.476;2024-01-30T06:36:33;0.35;;;0.20;;
42478;SDS011;28110;47.080;9.476;2024-01-30T06:38:59;0.60;;;0.30;;
42478;SDS011;28110;47.080;9.476;2024-01-30T06:41:25;1.92;;;0.30;;
42478;SDS011;28110;47.080;9.476;2024-01-30T06:43:50;0.68;;;0.20;;
42478;SDS011;28110;47.080;9.476;2024-01-30T06:46:17;0.20;;;0.20;;
42478;SDS011;28110;47.080;9.476;2024-01-30T06:48:42;1.80;;;0.20;;
42478;SDS011;28110;47.080;9.476;2024-01-30T06:51:09;0.40;;;0.25;;
42478;SDS011;28110;47.080;9.476;2024-01-30T06:53:35;0.33;;;0.30;;
42478;SDS011;28110;47.080;9.476;2024-01-30T06:56:01;0.20;;;0.20;;
42478;SDS011;28110;47.080;9.476;2024-01-30T06:58:26;0.43;;;0.33;;
42478;SDS011;28110;47.080;9.476;2024-01-30T07:00:52;0.50;;;0.30;;
42478;SDS011;28110;47.080;9.476;2024-01-30T07:03:17;0.50;;;0.30;;
42478;SDS011;28110;47.080;9.476;2024-01-30T07:05:43;0.27;;;0.27;;
42478;SDS011;28110;47.080;9.476;2024-01-30T07:08:08;0.37;;;0.30;;
42478;SDS011;28110;47.080;9.476;2024-01-30T07:10:34;2.42;;;0.70;;
42478;SDS011;28110;47.080;9.476;2024-01-30T07:13:02;0.30;;;0.30;;
42478;SDS011;28110;47.080;9.476;2024-01-30T07:15:30;0.75;;;0.20;;
42478;SDS011;28110;47.080;9.476;2024-01-30T07:17:55;0.57;;;0.30;;
42478;SDS011;28110;47.080;9.476;2024-01-30T07:20:21;0.20;;;0.20;;
42478;SDS011;28110;47.080;9.476;2024-01-30T07:22:46;0.63;;;0.30;;
42478;SDS011;28110;47.080;9.476;2024-01-30T07:25:12;1.33;;;0.40;;
42478;SDS011;28110;47.080;9.476;2024-01-30T07:27:38;0.20;;;0.20;;
42478;SDS011;28110;47.080;9.476;2024-01-30T07:30:04;0.20;;;0.20;;
42478;SDS011;28110;47.080;9.476;2024-01-30T07:32:30;0.47;;;0.30;;
42478;SDS011;28110;47.080;9.476;2024-01-30T07:34:56;1.08;;;0.50;;
42478;SDS011;28110;47.080;9.476;2024-01-30T07:37:22;0.30;;;0.30;;
42478;SDS011;28110;47.080;9.476;2024-01-30T07:39:47;5.83;;;0.50;;
42478;SDS011;28110;47.080;9.476;2024-01-30T07:42:13;1.20;;;0.50;;
42478;SDS011;28110;47.080;9.476;2024-01-30T07:44:38;0.93;;;0.40;;
42478;SDS011;28110;47.080;9.476;2024-01-30T07:47:04;0.60;;;0.20;;
42478;SDS011;28110;47.080;9.476;2024-01-30T07:49:30;0.85;;;0.28;;
42478;SDS011;28110;47.080;9.476;2024-01-30T07:51:55;0.47;;;0.30;;
42478;SDS011;28110;47.080;9.476;2024-01-30T07:54:21;0.20;;;0.20;;
42478;SDS011;28110;47.080;9.476;2024-01-30T07:56:47;0.83;;;0.37;;
42478;SDS011;28110;47.080;9.476;2024-01-30T07:59:12;0.20;;;0.20;;
42478;SDS011;28110;47.080;9.476;2024-01-30T08:01:38;0.65;;;0.50;;
42478;SDS011;28110;47.080;9.476;2024-01-30T08:04:04;0.25;;;0.20;;
42478;SDS011;28110;47.080;9.476;2024-01-30T08:06:29;1.42;;;0.30;;
42478;SDS011;28110;47.080;9.476;2024-01-30T08:08:55;1.03;;;0.20;;
42478;SDS011;28110;47.080;9.476;2024-01-30T08:11:22;0.50;;;0.30;;
42478;SDS011;28110;47.080;9.476;2024-01-30T08:13:51;0.63;;;0.43;;
42478;SDS011;28110;47.080;9.476;2024-01-30T08:16:17;1.45;;;0.30;;
42478;SDS011;28110;47.080;9.476;2024-01-30T08:18:43;0.20;;;0.20;;
42478;SDS011;28110;47.080;9.476;2024-01-30T08:21:08;0.52;;;0.30;;
42478;SDS011;28110;47.080;9.476;2024-01-30T08:23:34;0.87;;;0.20;;
42478;SDS011;28110;47.080;9.476;2024-01-30T08:26:00;2.65;;;0.30;;
42478;SDS011;28110;47.080;9.476;2024-01-30T08:28:25;0.20;;;0.20;;
42478;SDS011;28110;47.080;9.476;2024-01-30T08:30:51;1.58;;;0.40;;
42478;SDS011;28110;47.080;9.476;2024-01-30T08:33:17;0.40;;;0.30;;
42478;SDS011;28110;47.080;9.476;2024-01-30T08:35:42;0.30;;;0.30;;
42478;SDS011;28110;47.080;9.476;2024-01-30T08:38:08;1.20;;;0.20;;
42478;SDS011;28110;47.080;9.476;2024-01-30T08:40:33;0.90;;;0.40;;
42478;SDS011;28110;47.080;9.476;2024-01-30T08:42:59;1.17;;;0.40;;
42478;SDS011;28110;47.080;9.476;2024-01-30T08:45:25;4.10;;;0.40;;
42478;SDS011;28110;47.080;9.476;2024-01-30T08:47:51;2.15;;;0.40;;
42478;SDS011;28110;47.080;9.476;2024-01-30T08:50:16;1.03;;;0.40;;
42478;SDS011;28110;47.080;9.476;2024-01-30T08:52:42;1.58;;;0.30;;
42478;SDS011;28110;47.080;9.476;2024-01-30T08:55:07;1.90;;;0.60;;
42478;SDS011;28110;47.080;9.476;2024-01-30T08:57:33;0.93;;;0.40;;
42478;SDS011;28110;47.080;9.476;2024-01-30T08:59:58;1.25;;;0.38;;
42478;SDS011;28110;47.080;9.476;2024-01-30T09:02:25;0.65;;;0.35;;
42478;SDS011;28110;47.080;9.476;2024-01-30T09:04:50;4.23;;;0.30;;
42478;SDS011;28110;47.080;9.476;2024-01-30T09:07:16;2.00;;;0.27;;
42478;SDS011;28110;47.080;9.476;2024-01-30T09:09:41;0.40;;;0.30;;
42478;SDS011;28110;47.080;9.476;2024-01-30T09:12:07;0.70;;;0.40;;
42478;SDS011;28110;47.080;9.476;2024-01-30T09:14:34;0.60;;;0.30;;
42478;SDS011;28110;47.080;9.476;2024-01-30T09:17:03;0.77;;;0.40;;
42478;SDS011;28110;47.080;9.476;2024-01-30T09:19:30;1.40;;;0.45;;
42478;SDS011;28110;47.080;9.476;2024-01-30T09:21:55;5.88;;;3.40;;
42478;SDS011;28110;47.080;9.476;2024-01-30T09:24:21;6.97;;;4.17;;
42478;SDS011;28110;47.080;9.476;2024-01-30T09:26:46;8.73;;;4.60;;
42478;SDS011;28110;47.080;9.476;2024-01-30T09:29:12;8.60;;;4.50;;
42478;SDS011;28110;47.080;9.476;2024-01-30T09:31:37;15.17;;;5.53;;
42478;SDS011;28110;47.080;9.476;2024-01-30T09:34:03;10.33;;;5.20;;
42478;SDS011;28110;47.080;9.476;2024-01-30T09:36:28;9.32;;;5.18;;
42478;SDS011;28110;47.080;9.476;2024-01-30T09:38:54;9.67;;;5.30;;
42478;SDS011;28110;47.080;9.476;2024-01-30T09:41:20;9.20;;;5.63;;
42478;SDS011;28110;47.080;9.476;2024-01-30T09:43:49;13.10;;;5.57;;
42478;SDS011;28110;47.080;9.476;2024-01-30T09:46:16;13.60;;;6.85;;
42478;SDS011;28110;47.080;9.476;2024-01-30T09:48:43;11.90;;;6.53;;
42478;SDS011;28110;47.080;9.476;2024-01-30T09:51:12;14.40;;;6.25;;
42478;SDS011;28110;47.080;9.476;2024-01-30T09:53:39;13.40;;;6.57;;
42478;SDS011;28110;47.080;9.476;2024-01-30T09:56:06;12.95;;;6.90;;
42478;SDS011;28110;47.080;9.476;2024-01-30T09:58:32;10.85;;;6.60;;
42478;SDS011;28110;47.080;9.476;2024-01-30T10:00:58;15.07;;;6.93;;
42478;SDS011;28110;47.080;9.476;2024-01-30T10:03:24;10.75;;;5.97;;
42478;SDS011;28110;47.080;9.476;2024-01-30T10:05:50;17.52;;;6.07;;
42478;SDS011;28110;47.080;9.476;2024-01-30T10:08:19;15.23;;;6.87;;
42478;SDS011;28110;47.080;9.476;2024-01-30T10:10:48;11.55;;;6.95;;
42478;SDS011;28110;47.080;9.476;2024-01-30T10:13:15;13.48;;;6.85;;
42478;SDS011;28110;47.080;9.476;2024-01-30T10:15:41;10.40;;;7.35;;
42478;SDS011;28110;47.080;9.476;2024-01-30T10:18:07;11.13;;;6.63;;
42478;SDS011;28110;47.080;9.476;2024-01-30T10:20:35;10.48;;;7.00;;
42478;SDS011;28110;47.080;9.476;2024-01-30T10:23:00;11.45;;;6.45;;
42478;SDS011;28110;47.080;9.476;2024-01-30T10:25:26;11.98;;;7.25;;
42478;SDS011;28110;47.080;9.476;2024-01-30T10:27:52;11.65;;;6.82;;
42478;SDS011;28110;47.080;9.476;2024-01-30T10:30:20;11.60;;;6.43;;
42478;SDS011;28110;47.080;9.476;2024-01-30T10:32:46;10.30;;;6.28;;
42478;SDS011;28110;47.080;9.476;2024-01-30T10:35:11;10.70;;;6.47;;
42478;SDS011;28110;47.080;9.476;2024-01-30T10:37:37;11.33;;;6.77;;
42478;SDS011;28110;47.080;9.476;2024-01-30T10:40:03;11.20;;;6.82;;
42478;SDS011;28110;47.080;9.476;2024-01-30T10:42:32;10.73;;;6.53;;
42478;SDS011;28110;47.080;9.476;2024-01-30T10:45:06;12.05;;;6.07;;
42478;SDS011;28110;47.080;9.476;2024-01-30T10:47:34;12.80;;;6.72;;
42478;SDS011;28110;47.080;9.476;2024-01-30T10:50:01;16.90;;;7.72;;
42478;SDS011;28110;47.080;9.476;2024-01-30T10:52:28;12.35;;;6.40;;
42478;SDS011;28110;47.080;9.476;2024-01-30T10:54:55;9.37;;;5.27;;
42478;SDS011;28110;47.080;9.476;2024-01-30T10:57:24;9.80;;;6.38;;
42478;SDS011;28110;47.080;9.476;2024-01-30T10:59:58;12.63;;;6.55;;
42478;SDS011;28110;47.080;9.476;2024-01-30T11:02:25;10.35;;;6.03;;
42478;SDS011;28110;47.080;9.476;2024-01-30T11:04:58;11.18;;;6.18;;
42478;SDS011;28110;47.080;9.476;2024-01-30T11:07:25;14.20;;;6.70;;
42478;SDS011;28110;47.080;9.476;2024-01-30T11:12:23;14.15;;;6.65;;
42478;SDS011;28110;47.080;9.476;2024-01-30T11:14:50;11.38;;;6.47;;
42478;SDS011;28110;47.080;9.476;2024-01-30T11:17:41;10.15;;;6.20;;
42478;SDS011;28110;47.080;9.476;2024-01-30T11:20:09;9.73;;;6.20;;
42478;SDS011;28110;47.080;9.476;2024-01-30T11:22:36;11.35;;;6.55;;
42478;SDS011;28110;47.080;9.476;2024-01-30T11:25:02;10.75;;;6.45;;
42478;SDS011;28110;47.080;9.476;2024-01-30T11:27:28;10.43;;;6.10;;
42478;SDS011;28110;47.080;9.476;2024-01-30T11:30:00;13.07;;;6.20;;
42478;SDS011;28110;47.080;9.476;2024-01-30T11:32:27;11.23;;;6.57;;
42478;SDS011;28110;47.080;9.476;2024-01-30T11:34:53;13.80;;;6.27;;
42478;SDS011;28110;47.080;9.476;2024-01-30T11:37:19;10.52;;;6.82;;
42478;SDS011;28110;47.080;9.476;2024-01-30T11:39:49;10.48;;;5.72;;
42478;SDS011;28110;47.080;9.476;2024-01-30T11:42:16;9.82;;;6.00;;
42478;SDS011;28110;47.080;9.476;2024-01-30T11:44:46;7.73;;;5.07;;
42478;SDS011;28110;47.080;9.476;2024-01-30T11:47:14;9.00;;;5.00;;
42478;SDS011;28110;47.080;9.476;2024-01-30T11:49:41;9.13;;;5.47;;
42478;SDS011;28110;47.080;9.476;2024-01-30T11:52:07;9.90;;;5.00;;
42478;SDS011;28110;47.080;9.476;2024-01-30T11:54:34;7.10;;;4.50;;
42478;SDS011;28110;47.080;9.476;2024-01-30T11:56:59;10.90;;;5.18;;
42478;SDS011;28110;47.080;9.476;2024-01-30T11:59:25;8.73;;;5.00;;
42478;SDS011;28110;47.080;9.476;2024-01-30T12:01:51;10.27;;;4.53;;
42478;SDS011;28110;47.080;9.476;2024-01-30T12:04:17;8.43;;;4.40;;
42478;SDS011;28110;47.080;9.476;2024-01-30T12:06:43;7.88;;;4.70;;
42478;SDS011;28110;47.080;9.476;2024-01-30T12:09:09;10.23;;;4.57;;
42478;SDS011;28110;47.080;9.476;2024-01-30T12:11:46;9.37;;;4.30;;
42478;SDS011;28110;47.080;9.476;2024-01-30T12:14:12;9.35;;;4.10;;
42478;SDS011;28110;47.080;9.476;2024-01-30T12:16:38;10.10;;;4.25;;
42478;SDS011;28110;47.080;9.476;2024-01-30T12:19:04;8.93;;;4.37;;
42478;SDS011;28110;47.080;9.476;2024-01-30T12:21:30;7.53;;;3.72;;
42478;SDS011;28110;47.080;9.476;2024-01-30T12:23:56;7.03;;;4.07;;
42478;SDS011;28110;47.080;9.476;2024-01-30T12:26:23;7.82;;;4.53;;
42478;SDS011;28110;47.080;9.476;2024-01-30T12:28:50;11.45;;;4.43;;
42478;SDS011;28110;47.080;9.476;2024-01-30T12:31:16;10.30;;;4.60;;
42478;SDS011;28110;47.080;9.476;2024-01-30T12:33:41;9.48;;;4.75;;
42478;SDS011;28110;47.080;9.476;2024-01-30T12:36:07;10.60;;;5.10;;
42478;SDS011;28110;47.080;9.476;2024-01-30T12:38:32;9.83;;;5.00;;
42478;SDS011;28110;47.080;9.476;2024-01-30T12:40:58;8.77;;;4.50;;
42478;SDS011;28110;47.080;9.476;2024-01-30T12:43:24;6.73;;;4.13;;
42478;SDS011;28110;47.080;9.476;2024-01-30T12:45:50;10.02;;;4.55;;
42478;SDS011;28110;47.080;9.476;2024-01-30T12:48:17;11.77;;;4.40;;
42478;SDS011;28110;47.080;9.476;2024-01-30T12:50:42;8.40;;;4.70;;
42478;SDS011;28110;47.080;9.476;2024-01-30T12:53:08;9.20;;;4.77;;
42478;SDS011;28110;47.080;9.476;2024-01-30T12:55:38;11.05;;;5.07;;
42478;SDS011;28110;47.080;9.476;2024-01-30T12:58:03;10.52;;;5.65;;
42478;SDS011;28110;47.080;9.476;2024-01-30T13:00:29;11.20;;;4.90;;
42478;SDS011;28110;47.080;9.476;2024-01-30T13:02:54;14.03;;;5.33;;
42478;SDS011;28110;47.080;9.476;2024-01-30T13:05:20;9.25;;;4.30;;
42478;SDS011;28110;47.080;9.476;2024-01-30T13:07:46;9.87;;;4.50;;
42478;SDS011;28110;47.080;9.476;2024-01-30T13:10:11;9.45;;;4.97;;
42478;SDS011;28110;47.080;9.476;2024-01-30T13:12:38;10.07;;;4.73;;
42478;SDS011;28110;47.080;9.476;2024-01-30T13:15:04;7.70;;;4.10;;
42478;SDS011;28110;47.080;9.476;2024-01-30T13:17:30;8.13;;;4.13;;
42478;SDS011;28110;47.080;9.476;2024-01-30T13:19:56;9.50;;;4.70;;
42478;SDS011;28110;47.080;9.476;2024-01-30T13:22:23;12.55;;;5.00;;
42478;SDS011;28110;47.080;9.476;2024-01-30T13:24:49;8.55;;;4.50;;
42478;SDS011;28110;47.080;9.476;2024-01-30T13:27:15;10.10;;;4.60;;
42478;SDS011;28110;47.080;9.476;2024-01-30T13:29:40;7.95;;;4.50;;
42478;SDS011;28110;47.080;9.476;2024-01-30T13:32:06;8.73;;;5.33;;
42478;SDS011;28110;47.080;9.476;2024-01-30T13:34:31;8.23;;;4.85;;
42478;SDS011;28110;47.080;9.476;2024-01-30T13:36:57;6.30;;;4.53;;
42478;SDS011;28110;47.080;9.476;2024-01-30T13:39:23;8.70;;;4.60;;
42478;SDS011;28110;47.080;9.476;2024-01-30T13:41:49;9.53;;;4.30;;
42478;SDS011;28110;47.080;9.476;2024-01-30T13:44:15;8.25;;;4.60;;
42478;SDS011;28110;47.080;9.476;2024-01-30T13:46:42;11.85;;;4.97;;
42478;SDS011;28110;47.080;9.476;2024-01-30T13:49:08;10.18;;;4.43;;
42478;SDS011;28110;47.080;9.476;2024-01-30T13:51:33;8.70;;;4.57;;
42478;SDS011;28110;47.080;9.476;2024-01-30T13:53:59;10.30;;;4.93;;
42478;SDS011;28110;47.080;9.476;2024-01-30T13:56:24;8.73;;;4.37;;
42478;SDS011;28110;47.080;9.476;2024-01-30T13:58:51;7.65;;;4.65;;
42478;SDS011;28110;47.080;9.476;2024-01-30T14:01:17;8.43;;;4.47;;
42478;SDS011;28110;47.080;9.476;2024-01-30T14:03:43;10.15;;;4.25;;
42478;SDS011;28110;47.080;9.476;2024-01-30T14:06:08;10.30;;;4.73;;
42478;SDS011;28110;47.080;9.476;2024-01-30T14:08:34;12.80;;;5.18;;
42478;SDS011;28110;47.080;9.476;2024-01-30T14:10:59;7.90;;;4.70;;
42478;SDS011;28110;47.080;9.476;2024-01-30T14:13:25;9.43;;;5.37;;
42478;SDS011;28110;47.080;9.476;2024-01-30T14:15:51;6.68;;;4.28;;
42478;SDS011;28110;47.080;9.476;2024-01-30T14:18:17;9.43;;;4.37;;
42478;SDS011;28110;47.080;9.476;2024-01-30T14:20:43;8.07;;;4.28;;
42478;SDS011;28110;47.080;9.476;2024-01-30T14:23:08;10.97;;;4.37;;
42478;SDS011;28110;47.080;9.476;2024-01-30T14:25:34;5.93;;;3.50;;
42478;SDS011;28110;47.080;9.476;2024-01-30T14:28:00;6.43;;;3.80;;
42478;SDS011;28110;47.080;9.476;2024-01-30T14:30:25;7.07;;;3.90;;
42478;SDS011;28110;47.080;9.476;2024-01-30T14:32:51;7.15;;;4.47;;
42478;SDS011;28110;47.080;9.476;2024-01-30T14:35:16;7.47;;;3.97;;
42478;SDS011;28110;47.080;9.476;2024-01-30T14:37:42;7.67;;;4.40;;
42478;SDS011;28110;47.080;9.476;2024-01-30T14:40:08;7.45;;;4.55;;
42478;SDS011;28110;47.080;9.476;2024-01-30T14:42:33;9.10;;;5.30;;